sensor_id;sensor_type;location;lat;lon;timestamp;P1;durP1;ratioP1;P2;durP2;ratioP2
65230;SDS011;51813;40.666;16.602;2022-11-09T00:01:35;4.68;;;2.90;;
65230;SDS011;51813;40.666;16.602;2022-11-09T00:04:03;5.97;;;3.45;;
65230;SDS011;51813;40.666;16.602;2022-11-09T00:06:29;6.50;;;3.10;;
65230;SDS011;51813;40.666;16.602;2022-11-09T00:08:56;4.40;;;3.25;;
65230;SDS011;51813;40.666;16.602;2022-11-09T00:11:22;4.75;;;2.92;;
65230;SDS011;51813;40.666;16.602;2022-11-09T00:13:47;4.40;;;3.08;;
65230;SDS011;51813;40.666;16.602;2022-11-09T00:16:15;6.05;;;3.65;;
65230;SDS011;51813;40.666;16.602;2022-11-09T00:18:42;4.70;;;3.33;;
65230;SDS011;51813;40.666;16.602;2022-11-09T00:21:15;4.75;;;3.38;;
65230;SDS011;51813;40.666;16.602;2022-11-09T00:23:44;5.43;;;3.10;;
65230;SDS011;51813;40.666;16.602;2022-11-09T00:26:11;4.90;;;3.03;;
65230;SDS011;51813;40.666;16.602;2022-11-09T00:28:38;4.45;;;3.20;;
65230;SDS011;51813;40.666;16.602;2022-11-09T00:31:05;4.97;;;3.50;;
65230;SDS011;51813;40.666;16.602;2022-11-09T00:33:36;5.40;;;3.70;;
65230;SDS011;51813;40.666;16.602;2022-11-09T00:36:03;4.57;;;3.13;;
65230;SDS011;51813;40.666;16.602;2022-11-09T00:38:34;5.78;;;3.22;;
65230;SDS011;51813;40.666;16.602;2022-11-09T00:41:03;5.40;;;3.10;;
65230;SDS011;51813;40.666;16.602;2022-11-09T00:43:29;5.13;;;3.40;;
65230;SDS011;51813;40.666;16.602;2022-11-09T00:45:55;4.95;;;3.40;;
65230;SDS011;51813;40.666;16.602;2022-11-09T00:48:20;5.07;;;3.20;;
65230;SDS011;51813;40.666;16.602;2022-11-09T00:50:52;4.65;;;3.50;;
65230;SDS011;51813;40.666;16.602;2022-11-09T00:53:20;4.25;;;3.00;;
65230;SDS011;51813;40.666;16.602;2022-11-09T00:56:00;4.50;;;3.08;;
65230;SDS011;51813;40.666;16.602;2022-11-09T00:58:30;4.38;;;2.97;;
65230;SDS011;51813;40.666;16.602;2022-11-09T01:00:58;4.90;;;3.05;;
65230;SDS011;51813;40.666;16.602;2022-11-09T01:05:54;4.03;;;2.67;;
65230;SDS011;51813;40.666;16.602;2022-11-09T01:08:23;4.55;;;3.00;;
65230;SDS011;51813;40.666;16.602;2022-11-09T01:10:49;5.15;;;3.40;;
65230;SDS011;51813;40.666;16.602;2022-11-09T01:13:15;5.18;;;2.90;;
65230;SDS011;51813;40.666;16.602;2022-11-09T01:15:52;4.93;;;2.70;;
65230;SDS011;51813;40.666;16.602;2022-11-09T01:18:18;5.57;;;2.90;;
65230;SDS011;51813;40.666;16.602;2022-11-09T01:20:46;5.20;;;3.35;;
65230;SDS011;51813;40.666;16.602;2022-11-09T01:23:14;4.95;;;2.80;;
65230;SDS011;51813;40.666;16.602;2022-11-09T01:25:40;4.63;;;3.15;;
65230;SDS011;51813;40.666;16.602;2022-11-09T01:28:07;5.35;;;3.22;;
65230;SDS011;51813;40.666;16.602;2022-11-09T01:30:34;4.97;;;2.85;;
65230;SDS011;51813;40.666;16.602;2022-11-09T01:35:37;3.45;;;2.40;;
65230;SDS011;51813;40.666;16.602;2022-11-09T01:38:04;3.85;;;2.53;;
65230;SDS011;51813;40.666;16.602;2022-11-09T01:40:32;4.78;;;2.70;;
65230;SDS011;51813;40.666;16.602;2022-11-09T01:43:05;3.85;;;2.83;;
65230;SDS011;51813;40.666;16.602;2022-11-09T01:45:41;3.53;;;2.47;;
65230;SDS011;51813;40.666;16.602;2022-11-09T01:48:15;3.88;;;2.47;;
65230;SDS011;51813;40.666;16.602;2022-11-09T01:50:54;4.95;;;2.80;;
65230;SDS011;51813;40.666;16.602;2022-11-09T01:53:23;4.95;;;2.92;;
65230;SDS011;51813;40.666;16.602;2022-11-09T01:55:55;4.97;;;3.00;;
65230;SDS011;51813;40.666;16.602;2022-11-09T01:58:26;4.50;;;2.65;;
65230;SDS011;51813;40.666;16.602;2022-11-09T02:00:57;4.97;;;2.80;;
65230;SDS011;51813;40.666;16.602;2022-11-09T02:03:26;4.55;;;2.83;;
65230;SDS011;51813;40.666;16.602;2022-11-09T02:06:02;4.88;;;3.10;;
65230;SDS011;51813;40.666;16.602;2022-11-09T02:08:30;4.30;;;3.10;;
65230;SDS011;51813;40.666;16.602;2022-11-09T02:11:03;3.58;;;2.67;;
65230;SDS011;51813;40.666;16.602;2022-11-09T02:13:37;3.83;;;2.95;;
65230;SDS011;51813;40.666;16.602;2022-11-09T02:16:07;4.07;;;2.78;;
65230;SDS011;51813;40.666;16.602;2022-11-09T02:18:34;6.00;;;3.20;;
65230;SDS011;51813;40.666;16.602;2022-11-09T02:21:03;5.00;;;2.97;;
65230;SDS011;51813;40.666;16.602;2022-11-09T02:23:29;5.13;;;3.20;;
65230;SDS011;51813;40.666;16.602;2022-11-09T02:25:59;4.60;;;3.13;;
65230;SDS011;51813;40.666;16.602;2022-11-09T02:28:29;5.10;;;3.22;;
65230;SDS011;51813;40.666;16.602;2022-11-09T02:30:56;4.50;;;2.97;;
65230;SDS011;51813;40.666;16.602;2022-11-09T02:33:23;5.22;;;3.15;;
65230;SDS011;51813;40.666;16.602;2022-11-09T02:35:49;4.85;;;2.70;;
65230;SDS011;51813;40.666;16.602;2022-11-09T02:38:14;4.95;;;2.78;;
65230;SDS011;51813;40.666;16.602;2022-11-09T02:40:42;4.53;;;2.90;;
65230;SDS011;51813;40.666;16.602;2022-11-09T02:43:10;3.93;;;2.70;;
65230;SDS011;51813;40.666;16.602;2022-11-09T02:45:38;4.30;;;2.67;;
65230;SDS011;51813;40.666;16.602;2022-11-09T02:48:04;4.15;;;2.72;;
65230;SDS011;51813;40.666;16.602;2022-11-09T02:50:30;4.45;;;2.65;;
65230;SDS011;51813;40.666;16.602;2022-11-09T02:52:55;4.13;;;2.75;;
65230;SDS011;51813;40.666;16.602;2022-11-09T02:55:21;4.50;;;2.80;;
65230;SDS011;51813;40.666;16.602;2022-11-09T02:57:47;4.25;;;2.58;;
65230;SDS011;51813;40.666;16.602;2022-11-09T03:00:12;4.55;;;2.80;;
65230;SDS011;51813;40.666;16.602;2022-11-09T03:02:38;4.82;;;2.97;;
65230;SDS011;51813;40.666;16.602;2022-11-09T03:05:04;4.07;;;2.30;;
65230;SDS011;51813;40.666;16.602;2022-11-09T03:07:30;3.97;;;2.28;;
65230;SDS011;51813;40.666;16.602;2022-11-09T03:09:56;4.30;;;2.80;;
65230;SDS011;51813;40.666;16.602;2022-11-09T03:12:22;4.22;;;2.70;;
65230;SDS011;51813;40.666;16.602;2022-11-09T03:15:04;4.65;;;2.95;;
65230;SDS011;51813;40.666;16.602;2022-11-09T03:17:32;4.30;;;2.72;;
65230;SDS011;51813;40.666;16.602;2022-11-09T03:19:58;4.55;;;2.90;;
65230;SDS011;51813;40.666;16.602;2022-11-09T03:22:24;4.97;;;2.97;;
65230;SDS011;51813;40.666;16.602;2022-11-09T03:24:49;3.75;;;2.60;;
65230;SDS011;51813;40.666;16.602;2022-11-09T03:27:15;3.90;;;2.72;;
65230;SDS011;51813;40.666;16.602;2022-11-09T03:29:41;3.92;;;2.50;;
65230;SDS011;51813;40.666;16.602;2022-11-09T03:32:07;3.97;;;2.50;;
65230;SDS011;51813;40.666;16.602;2022-11-09T03:34:33;4.57;;;2.80;;
65230;SDS011;51813;40.666;16.602;2022-11-09T03:36:59;3.55;;;2.40;;
65230;SDS011;51813;40.666;16.602;2022-11-09T03:39:25;3.72;;;2.20;;
65230;SDS011;51813;40.666;16.602;2022-11-09T03:41:50;4.40;;;2.47;;
65230;SDS011;51813;40.666;16.602;2022-11-09T03:44:16;3.67;;;2.47;;
65230;SDS011;51813;40.666;16.602;2022-11-09T03:46:44;4.82;;;2.45;;
65230;SDS011;51813;40.666;16.602;2022-11-09T03:49:09;3.92;;;2.45;;
65230;SDS011;51813;40.666;16.602;2022-11-09T03:51:35;3.38;;;2.13;;
65230;SDS011;51813;40.666;16.602;2022-11-09T03:54:01;3.78;;;2.17;;
65230;SDS011;51813;40.666;16.602;2022-11-09T03:56:27;3.80;;;2.40;;
65230;SDS011;51813;40.666;16.602;2022-11-09T03:58:52;4.07;;;2.40;;
65230;SDS011;51813;40.666;16.602;2022-11-09T04:01:18;3.45;;;2.05;;
65230;SDS011;51813;40.666;16.602;2022-11-09T04:03:44;3.90;;;2.50;;
65230;SDS011;51813;40.666;16.602;2022-11-09T04:06:09;3.70;;;2.40;;
65230;SDS011;51813;40.666;16.602;2022-11-09T04:08:35;3.85;;;2.28;;
65230;SDS011;51813;40.666;16.602;2022-11-09T04:11:01;4.25;;;2.22;;
65230;SDS011;51813;40.666;16.602;2022-11-09T04:13:26;4.78;;;2.33;;
65230;SDS011;51813;40.666;16.602;2022-11-09T04:15:52;3.72;;;2.05;;
65230;SDS011;51813;40.666;16.602;2022-11-09T04:18:18;3.33;;;2.03;;
65230;SDS011;51813;40.666;16.602;2022-11-09T04:20:44;5.22;;;2.20;;
65230;SDS011;51813;40.666;16.602;2022-11-09T04:23:11;3.72;;;2.20;;
65230;SDS011;51813;40.666;16.602;2022-11-09T04:25:38;3.53;;;2.30;;
65230;SDS011;51813;40.666;16.602;2022-11-09T04:28:05;4.20;;;2.20;;
65230;SDS011;51813;40.666;16.602;2022-11-09T04:30:33;4.05;;;2.50;;
65230;SDS011;51813;40.666;16.602;2022-11-09T04:33:00;4.53;;;2.47;;
65230;SDS011;51813;40.666;16.602;2022-11-09T04:35:26;4.05;;;2.50;;
65230;SDS011;51813;40.666;16.602;2022-11-09T04:40:23;3.65;;;2.00;;
65230;SDS011;51813;40.666;16.602;2022-11-09T04:42:50;3.88;;;2.30;;
65230;SDS011;51813;40.666;16.602;2022-11-09T04:45:16;3.40;;;2.00;;
65230;SDS011;51813;40.666;16.602;2022-11-09T04:47:42;3.70;;;1.92;;
65230;SDS011;51813;40.666;16.602;2022-11-09T04:50:08;3.70;;;2.17;;
65230;SDS011;51813;40.666;16.602;2022-11-09T04:52:34;3.53;;;2.08;;
65230;SDS011;51813;40.666;16.602;2022-11-09T04:55:00;3.38;;;2.10;;
65230;SDS011;51813;40.666;16.602;2022-11-09T04:57:26;3.65;;;1.80;;
65230;SDS011;51813;40.666;16.602;2022-11-09T04:59:51;3.30;;;1.90;;
65230;SDS011;51813;40.666;16.602;2022-11-09T05:02:17;4.13;;;2.00;;
65230;SDS011;51813;40.666;16.602;2022-11-09T05:04:43;3.45;;;2.10;;
65230;SDS011;51813;40.666;16.602;2022-11-09T05:07:08;3.30;;;2.00;;
65230;SDS011;51813;40.666;16.602;2022-11-09T05:09:34;3.30;;;1.98;;
65230;SDS011;51813;40.666;16.602;2022-11-09T05:12:00;3.30;;;1.67;;
65230;SDS011;51813;40.666;16.602;2022-11-09T05:14:26;4.15;;;2.03;;
65230;SDS011;51813;40.666;16.602;2022-11-09T05:16:51;5.43;;;2.20;;
65230;SDS011;51813;40.666;16.602;2022-11-09T05:19:17;2.78;;;1.90;;
65230;SDS011;51813;40.666;16.602;2022-11-09T05:21:43;3.65;;;2.10;;
65230;SDS011;51813;40.666;16.602;2022-11-09T05:24:08;3.65;;;2.08;;
65230;SDS011;51813;40.666;16.602;2022-11-09T05:26:35;3.95;;;2.15;;
65230;SDS011;51813;40.666;16.602;2022-11-09T05:29:06;2.90;;;1.90;;
65230;SDS011;51813;40.666;16.602;2022-11-09T05:31:34;3.40;;;1.83;;
65230;SDS011;51813;40.666;16.602;2022-11-09T05:34:00;4.63;;;2.33;;
65230;SDS011;51813;40.666;16.602;2022-11-09T05:36:27;3.15;;;2.00;;
65230;SDS011;51813;40.666;16.602;2022-11-09T05:38:54;3.80;;;1.90;;
65230;SDS011;51813;40.666;16.602;2022-11-09T05:41:20;3.95;;;1.90;;
65230;SDS011;51813;40.666;16.602;2022-11-09T05:43:46;4.40;;;2.30;;
65230;SDS011;51813;40.666;16.602;2022-11-09T05:46:13;5.90;;;2.30;;
65230;SDS011;51813;40.666;16.602;2022-11-09T05:48:39;3.22;;;2.28;;
65230;SDS011;51813;40.666;16.602;2022-11-09T05:51:06;3.38;;;2.25;;
65230;SDS011;51813;40.666;16.602;2022-11-09T05:53:34;3.53;;;2.35;;
65230;SDS011;51813;40.666;16.602;2022-11-09T05:56:07;4.25;;;2.10;;
65230;SDS011;51813;40.666;16.602;2022-11-09T05:58:34;3.35;;;2.22;;
65230;SDS011;51813;40.666;16.602;2022-11-09T06:01:06;3.67;;;2.10;;
65230;SDS011;51813;40.666;16.602;2022-11-09T06:03:34;5.28;;;3.15;;
65230;SDS011;51813;40.666;16.602;2022-11-09T06:06:01;4.25;;;2.10;;
65230;SDS011;51813;40.666;16.602;2022-11-09T06:08:28;3.90;;;2.20;;
65230;SDS011;51813;40.666;16.602;2022-11-09T06:10:58;4.07;;;2.28;;
65230;SDS011;51813;40.666;16.602;2022-11-09T06:13:26;3.33;;;2.30;;
65230;SDS011;51813;40.666;16.602;2022-11-09T06:15:53;4.07;;;2.22;;
65230;SDS011;51813;40.666;16.602;2022-11-09T06:18:19;4.22;;;2.33;;
65230;SDS011;51813;40.666;16.602;2022-11-09T06:20:45;3.08;;;2.30;;
65230;SDS011;51813;40.666;16.602;2022-11-09T06:23:10;3.28;;;2.25;;
65230;SDS011;51813;40.666;16.602;2022-11-09T06:25:36;4.05;;;2.38;;
65230;SDS011;51813;40.666;16.602;2022-11-09T06:28:02;4.22;;;2.25;;
65230;SDS011;51813;40.666;16.602;2022-11-09T06:30:27;3.72;;;2.45;;
65230;SDS011;51813;40.666;16.602;2022-11-09T06:32:57;4.68;;;2.67;;
65230;SDS011;51813;40.666;16.602;2022-11-09T06:35:24;4.47;;;2.55;;
65230;SDS011;51813;40.666;16.602;2022-11-09T06:37:59;4.03;;;2.13;;
65230;SDS011;51813;40.666;16.602;2022-11-09T06:40:25;3.88;;;2.17;;
65230;SDS011;51813;40.666;16.602;2022-11-09T06:42:51;4.30;;;2.45;;
65230;SDS011;51813;40.666;16.602;2022-11-09T06:45:21;4.53;;;2.78;;
65230;SDS011;51813;40.666;16.602;2022-11-09T06:47:46;4.28;;;2.25;;
65230;SDS011;51813;40.666;16.602;2022-11-09T06:50:12;4.65;;;2.67;;
65230;SDS011;51813;40.666;16.602;2022-11-09T06:52:38;3.22;;;2.30;;
65230;SDS011;51813;40.666;16.602;2022-11-09T06:55:03;4.40;;;2.33;;
65230;SDS011;51813;40.666;16.602;2022-11-09T06:57:29;5.25;;;2.30;;
65230;SDS011;51813;40.666;16.602;2022-11-09T06:59:55;3.10;;;2.13;;
65230;SDS011;51813;40.666;16.602;2022-11-09T07:02:21;4.57;;;2.30;;
65230;SDS011;51813;40.666;16.602;2022-11-09T07:04:50;5.05;;;2.40;;
65230;SDS011;51813;40.666;16.602;2022-11-09T07:07:16;3.88;;;2.20;;
65230;SDS011;51813;40.666;16.602;2022-11-09T07:09:42;4.07;;;2.35;;
65230;SDS011;51813;40.666;16.602;2022-11-09T07:12:07;4.70;;;2.30;;
65230;SDS011;51813;40.666;16.602;2022-11-09T07:14:34;4.63;;;2.40;;
65230;SDS011;51813;40.666;16.602;2022-11-09T07:17:00;4.38;;;2.13;;
65230;SDS011;51813;40.666;16.602;2022-11-09T07:19:27;3.88;;;2.55;;
65230;SDS011;51813;40.666;16.602;2022-11-09T07:21:53;4.18;;;2.30;;
65230;SDS011;51813;40.666;16.602;2022-11-09T07:24:20;3.13;;;2.30;;
65230;SDS011;51813;40.666;16.602;2022-11-09T07:26:46;4.00;;;2.38;;
65230;SDS011;51813;40.666;16.602;2022-11-09T07:29:13;3.55;;;2.65;;
65230;SDS011;51813;40.666;16.602;2022-11-09T07:31:39;3.55;;;2.33;;
65230;SDS011;51813;40.666;16.602;2022-11-09T07:34:04;3.38;;;2.25;;
65230;SDS011;51813;40.666;16.602;2022-11-09T07:36:30;3.50;;;2.30;;
65230;SDS011;51813;40.666;16.602;2022-11-09T07:38:57;4.05;;;2.45;;
65230;SDS011;51813;40.666;16.602;2022-11-09T07:41:23;3.30;;;2.10;;
65230;SDS011;51813;40.666;16.602;2022-11-09T07:43:49;4.15;;;2.15;;
65230;SDS011;51813;40.666;16.602;2022-11-09T07:46:14;4.03;;;2.13;;
65230;SDS011;51813;40.666;16.602;2022-11-09T07:48:40;4.07;;;2.42;;
65230;SDS011;51813;40.666;16.602;2022-11-09T07:51:06;4.25;;;2.67;;
65230;SDS011;51813;40.666;16.602;2022-11-09T07:53:32;3.53;;;2.13;;
65230;SDS011;51813;40.666;16.602;2022-11-09T07:55:58;6.72;;;2.90;;
65230;SDS011;51813;40.666;16.602;2022-11-09T07:58:25;4.20;;;2.40;;
65230;SDS011;51813;40.666;16.602;2022-11-09T08:00:51;3.90;;;2.55;;
65230;SDS011;51813;40.666;16.602;2022-11-09T08:03:18;4.68;;;2.60;;
65230;SDS011;51813;40.666;16.602;2022-11-09T08:05:44;4.20;;;2.33;;
65230;SDS011;51813;40.666;16.602;2022-11-09T08:08:10;3.95;;;2.20;;
65230;SDS011;51813;40.666;16.602;2022-11-09T08:10:37;3.88;;;2.20;;
65230;SDS011;51813;40.666;16.602;2022-11-09T08:13:04;4.68;;;2.58;;
65230;SDS011;51813;40.666;16.602;2022-11-09T08:15:32;4.88;;;2.80;;
65230;SDS011;51813;40.666;16.602;2022-11-09T08:18:00;5.32;;;2.60;;
65230;SDS011;51813;40.666;16.602;2022-11-09T08:20:27;5.40;;;2.67;;
65230;SDS011;51813;40.666;16.602;2022-11-09T08:22:53;4.60;;;2.53;;
65230;SDS011;51813;40.666;16.602;2022-11-09T08:25:19;4.72;;;2.88;;
65230;SDS011;51813;40.666;16.602;2022-11-09T08:27:45;6.80;;;3.17;;
65230;SDS011;51813;40.666;16.602;2022-11-09T08:30:12;6.00;;;3.33;;
65230;SDS011;51813;40.666;16.602;2022-11-09T08:32:40;4.95;;;3.03;;
65230;SDS011;51813;40.666;16.602;2022-11-09T08:35:08;5.82;;;3.17;;
65230;SDS011;51813;40.666;16.602;2022-11-09T08:37:37;4.85;;;3.13;;
65230;SDS011;51813;40.666;16.602;2022-11-09T08:40:04;5.55;;;3.20;;
65230;SDS011;51813;40.666;16.602;2022-11-09T08:42:30;7.50;;;3.75;;
65230;SDS011;51813;40.666;16.602;2022-11-09T08:44:56;6.53;;;3.80;;
65230;SDS011;51813;40.666;16.602;2022-11-09T08:47:22;7.20;;;4.20;;
65230;SDS011;51813;40.666;16.602;2022-11-09T08:49:47;9.77;;;5.10;;
65230;SDS011;51813;40.666;16.602;2022-11-09T08:52:14;7.82;;;4.15;;
65230;SDS011;51813;40.666;16.602;2022-11-09T08:54:40;7.22;;;3.70;;
65230;SDS011;51813;40.666;16.602;2022-11-09T08:57:06;6.90;;;4.28;;
65230;SDS011;51813;40.666;16.602;2022-11-09T08:59:32;7.22;;;4.05;;
65230;SDS011;51813;40.666;16.602;2022-11-09T09:01:57;5.82;;;3.65;;
65230;SDS011;51813;40.666;16.602;2022-11-09T09:04:23;6.97;;;3.75;;
65230;SDS011;51813;40.666;16.602;2022-11-09T09:06:49;8.32;;;3.97;;
65230;SDS011;51813;40.666;16.602;2022-11-09T09:09:14;5.90;;;3.90;;
65230;SDS011;51813;40.666;16.602;2022-11-09T09:11:40;6.03;;;2.75;;
65230;SDS011;51813;40.666;16.602;2022-11-09T09:14:06;5.38;;;3.10;;
65230;SDS011;51813;40.666;16.602;2022-11-09T09:16:31;5.75;;;3.00;;
65230;SDS011;51813;40.666;16.602;2022-11-09T09:18:57;5.10;;;3.20;;
65230;SDS011;51813;40.666;16.602;2022-11-09T09:21:23;5.72;;;3.10;;
65230;SDS011;51813;40.666;16.602;2022-11-09T09:23:48;4.82;;;2.85;;
65230;SDS011;51813;40.666;16.602;2022-11-09T09:26:14;4.57;;;2.88;;
65230;SDS011;51813;40.666;16.602;2022-11-09T09:28:41;4.75;;;3.20;;
65230;SDS011;51813;40.666;16.602;2022-11-09T09:31:07;5.80;;;3.20;;
65230;SDS011;51813;40.666;16.602;2022-11-09T09:33:33;7.47;;;3.50;;
65230;SDS011;51813;40.666;16.602;2022-11-09T09:35:59;5.45;;;3.33;;
65230;SDS011;51813;40.666;16.602;2022-11-09T09:38:25;5.53;;;3.30;;
65230;SDS011;51813;40.666;16.602;2022-11-09T09:40:58;4.80;;;3.38;;
65230;SDS011;51813;40.666;16.602;2022-11-09T09:45:57;6.05;;;3.50;;
65230;SDS011;51813;40.666;16.602;2022-11-09T09:48:38;4.95;;;3.08;;
65230;SDS011;51813;40.666;16.602;2022-11-09T09:51:21;4.50;;;2.67;;
65230;SDS011;51813;40.666;16.602;2022-11-09T09:54:02;4.38;;;3.05;;
65230;SDS011;51813;40.666;16.602;2022-11-09T09:56:34;4.78;;;3.10;;
65230;SDS011;51813;40.666;16.602;2022-11-09T10:01:42;5.88;;;2.83;;
65230;SDS011;51813;40.666;16.602;2022-11-09T10:04:19;4.45;;;2.78;;
65230;SDS011;51813;40.666;16.602;2022-11-09T10:26:42;5.00;;;2.33;;
65230;SDS011;51813;40.666;16.602;2022-11-09T10:29:35;4.65;;;2.78;;
65230;SDS011;51813;40.666;16.602;2022-11-09T10:32:04;3.58;;;2.20;;
65230;SDS011;51813;40.666;16.602;2022-11-09T10:40:15;4.03;;;2.20;;
65230;SDS011;51813;40.666;16.602;2022-11-09T10:47:54;3.58;;;2.50;;
65230;SDS011;51813;40.666;16.602;2022-11-09T10:53:31;6.38;;;2.70;;
65230;SDS011;51813;40.666;16.602;2022-11-09T10:58:35;3.60;;;2.30;;
65230;SDS011;51813;40.666;16.602;2022-11-09T11:01:16;4.22;;;2.45;;
65230;SDS011;51813;40.666;16.602;2022-11-09T11:03:48;3.90;;;2.15;;
65230;SDS011;51813;40.666;16.602;2022-11-09T11:08:42;3.80;;;2.13;;
65230;SDS011;51813;40.666;16.602;2022-11-09T11:11:25;3.40;;;2.40;;
65230;SDS011;51813;40.666;16.602;2022-11-09T11:14:57;3.55;;;2.22;;
65230;SDS011;51813;40.666;16.602;2022-11-09T11:16:58;5.55;;;2.47;;
65230;SDS011;51813;40.666;16.602;2022-11-09T11:19:34;5.63;;;2.80;;
65230;SDS011;51813;40.666;16.602;2022-11-09T11:27:46;4.72;;;2.55;;
65230;SDS011;51813;40.666;16.602;2022-11-09T11:30:20;4.35;;;2.47;;
65230;SDS011;51813;40.666;16.602;2022-11-09T11:32:55;5.45;;;2.88;;
65230;SDS011;51813;40.666;16.602;2022-11-09T11:35:26;3.92;;;2.42;;
65230;SDS011;51813;40.666;16.602;2022-11-09T11:46:03;6.25;;;3.00;;
65230;SDS011;51813;40.666;16.602;2022-11-09T12:02:26;4.15;;;2.58;;
65230;SDS011;51813;40.666;16.602;2022-11-09T12:05:14;4.60;;;2.50;;
65230;SDS011;51813;40.666;16.602;2022-11-09T12:16:29;3.25;;;2.30;;
65230;SDS011;51813;40.666;16.602;2022-11-09T12:22:05;4.88;;;2.22;;
65230;SDS011;51813;40.666;16.602;2022-11-09T12:30:13;3.47;;;2.15;;
65230;SDS011;51813;40.666;16.602;2022-11-09T12:32:49;3.03;;;1.95;;
65230;SDS011;51813;40.666;16.602;2022-11-09T12:37:47;3.00;;;2.10;;
65230;SDS011;51813;40.666;16.602;2022-11-09T12:40:20;4.55;;;2.20;;
65230;SDS011;51813;40.666;16.602;2022-11-09T12:42:52;4.32;;;2.42;;
65230;SDS011;51813;40.666;16.602;2022-11-09T12:45:33;3.25;;;1.98;;
65230;SDS011;51813;40.666;16.602;2022-11-09T12:48:04;4.53;;;1.92;;
65230;SDS011;51813;40.666;16.602;2022-11-09T12:50:36;4.18;;;2.20;;
65230;SDS011;51813;40.666;16.602;2022-11-09T12:53:02;3.45;;;2.17;;
65230;SDS011;51813;40.666;16.602;2022-11-09T12:58:26;3.25;;;2.13;;
65230;SDS011;51813;40.666;16.602;2022-11-09T13:00:55;3.25;;;2.10;;
65230;SDS011;51813;40.666;16.602;2022-11-09T13:03:29;3.50;;;2.13;;
65230;SDS011;51813;40.666;16.602;2022-11-09T13:08:37;3.58;;;2.05;;
65230;SDS011;51813;40.666;16.602;2022-11-09T13:11:47;3.13;;;1.83;;
65230;SDS011;51813;40.666;16.602;2022-11-09T13:16:52;2.75;;;1.98;;
65230;SDS011;51813;40.666;16.602;2022-11-09T13:27:40;6.07;;;2.42;;
65230;SDS011;51813;40.666;16.602;2022-11-09T13:30:54;3.58;;;2.30;;
65230;SDS011;51813;40.666;16.602;2022-11-09T13:40:54;4.10;;;2.80;;
65230;SDS011;51813;40.666;16.602;2022-11-09T13:43:22;3.75;;;2.50;;
65230;SDS011;51813;40.666;16.602;2022-11-09T13:48:29;4.28;;;2.78;;
65230;SDS011;51813;40.666;16.602;2022-11-09T13:53:46;5.13;;;2.80;;
65230;SDS011;51813;40.666;16.602;2022-11-09T14:04:26;5.20;;;2.90;;
65230;SDS011;51813;40.666;16.602;2022-11-09T14:06:58;4.80;;;2.70;;
65230;SDS011;51813;40.666;16.602;2022-11-09T14:22:15;3.63;;;2.40;;
65230;SDS011;51813;40.666;16.602;2022-11-09T14:24:43;4.18;;;2.63;;
65230;SDS011;51813;40.666;16.602;2022-11-09T14:29:51;3.95;;;2.80;;
65230;SDS011;51813;40.666;16.602;2022-11-09T14:35:08;5.65;;;2.80;;
65230;SDS011;51813;40.666;16.602;2022-11-09T14:37:54;3.95;;;2.92;;
65230;SDS011;51813;40.666;16.602;2022-11-09T14:40:29;7.68;;;3.17;;
65230;SDS011;51813;40.666;16.602;2022-11-09T14:45:22;3.88;;;2.63;;
65230;SDS011;51813;40.666;16.602;2022-11-09T14:47:48;4.07;;;2.67;;
65230;SDS011;51813;40.666;16.602;2022-11-09T14:50:17;4.72;;;2.95;;
65230;SDS011;51813;40.666;16.602;2022-11-09T14:53:02;4.18;;;2.80;;
65230;SDS011;51813;40.666;16.602;2022-11-09T14:55:29;4.60;;;2.75;;
65230;SDS011;51813;40.666;16.602;2022-11-09T14:58:03;4.75;;;2.80;;
65230;SDS011;51813;40.666;16.602;2022-11-09T15:00:31;4.65;;;3.10;;
65230;SDS011;51813;40.666;16.602;2022-11-09T15:02:59;4.07;;;2.60;;
65230;SDS011;51813;40.666;16.602;2022-11-09T15:05:44;4.28;;;2.55;;
65230;SDS011;51813;40.666;16.602;2022-11-09T15:08:20;4.18;;;2.50;;
65230;SDS011;51813;40.666;16.602;2022-11-09T15:10:49;5.10;;;2.50;;
65230;SDS011;51813;40.666;16.602;2022-11-09T15:13:17;3.85;;;2.38;;
65230;SDS011;51813;40.666;16.602;2022-11-09T15:15:50;4.03;;;2.63;;
65230;SDS011;51813;40.666;16.602;2022-11-09T15:18:19;3.58;;;2.35;;
65230;SDS011;51813;40.666;16.602;2022-11-09T15:20:48;5.47;;;3.23;;
65230;SDS011;51813;40.666;16.602;2022-11-09T15:24:03;8.63;;;2.90;;
65230;SDS011;51813;40.666;16.602;2022-11-09T15:26:43;4.72;;;3.10;;
65230;SDS011;51813;40.666;16.602;2022-11-09T15:31:55;4.68;;;3.50;;
65230;SDS011;51813;40.666;16.602;2022-11-09T15:34:22;5.65;;;3.30;;
65230;SDS011;51813;40.666;16.602;2022-11-09T15:36:54;3.90;;;3.30;;
65230;SDS011;51813;40.666;16.602;2022-11-09T15:39:20;5.13;;;3.38;;
65230;SDS011;51813;40.666;16.602;2022-11-09T15:41:47;6.30;;;3.67;;
65230;SDS011;51813;40.666;16.602;2022-11-09T15:44:13;6.97;;;4.13;;
65230;SDS011;51813;40.666;16.602;2022-11-09T15:46:41;5.20;;;3.40;;
65230;SDS011;51813;40.666;16.602;2022-11-09T15:51:45;5.93;;;3.50;;
65230;SDS011;51813;40.666;16.602;2022-11-09T15:54:11;5.05;;;3.40;;
65230;SDS011;51813;40.666;16.602;2022-11-09T15:56:37;6.05;;;3.60;;
65230;SDS011;51813;40.666;16.602;2022-11-09T15:59:03;5.18;;;3.25;;
65230;SDS011;51813;40.666;16.602;2022-11-09T16:01:30;4.60;;;3.20;;
65230;SDS011;51813;40.666;16.602;2022-11-09T16:03:56;6.43;;;4.00;;
65230;SDS011;51813;40.666;16.602;2022-11-09T16:06:22;4.78;;;3.35;;
65230;SDS011;51813;40.666;16.602;2022-11-09T16:08:48;5.63;;;4.10;;
65230;SDS011;51813;40.666;16.602;2022-11-09T16:11:15;5.55;;;4.50;;
65230;SDS011;51813;40.666;16.602;2022-11-09T16:13:41;6.40;;;4.05;;
65230;SDS011;51813;40.666;16.602;2022-11-09T16:16:08;6.53;;;4.30;;
65230;SDS011;51813;40.666;16.602;2022-11-09T16:18:35;6.78;;;4.07;;
65230;SDS011;51813;40.666;16.602;2022-11-09T16:21:11;8.27;;;4.05;;
65230;SDS011;51813;40.666;16.602;2022-11-09T16:23:39;5.55;;;4.22;;
65230;SDS011;51813;40.666;16.602;2022-11-09T16:26:09;5.38;;;4.07;;
65230;SDS011;51813;40.666;16.602;2022-11-09T16:28:37;7.43;;;4.40;;
65230;SDS011;51813;40.666;16.602;2022-11-09T16:31:04;6.68;;;4.50;;
65230;SDS011;51813;40.666;16.602;2022-11-09T16:33:30;6.07;;;4.32;;
65230;SDS011;51813;40.666;16.602;2022-11-09T16:35:57;6.78;;;4.82;;
65230;SDS011;51813;40.666;16.602;2022-11-09T16:38:28;6.35;;;4.50;;
65230;SDS011;51813;40.666;16.602;2022-11-09T16:40:55;5.68;;;4.30;;
65230;SDS011;51813;40.666;16.602;2022-11-09T16:43:23;5.95;;;4.78;;
65230;SDS011;51813;40.666;16.602;2022-11-09T16:45:49;6.53;;;4.65;;
65230;SDS011;51813;40.666;16.602;2022-11-09T16:48:15;6.38;;;4.80;;
65230;SDS011;51813;40.666;16.602;2022-11-09T16:50:41;6.82;;;4.72;;
65230;SDS011;51813;40.666;16.602;2022-11-09T16:53:08;7.95;;;4.80;;
65230;SDS011;51813;40.666;16.602;2022-11-09T16:55:34;8.27;;;5.20;;
65230;SDS011;51813;40.666;16.602;2022-11-09T16:58:00;6.95;;;4.72;;
65230;SDS011;51813;40.666;16.602;2022-11-09T17:00:26;7.78;;;5.53;;
65230;SDS011;51813;40.666;16.602;2022-11-09T17:02:52;7.50;;;5.38;;
65230;SDS011;51813;40.666;16.602;2022-11-09T17:05:17;8.38;;;6.00;;
65230;SDS011;51813;40.666;16.602;2022-11-09T17:07:45;7.30;;;5.38;;
65230;SDS011;51813;40.666;16.602;2022-11-09T17:10:11;7.70;;;6.03;;
65230;SDS011;51813;40.666;16.602;2022-11-09T17:12:38;7.15;;;5.40;;
65230;SDS011;51813;40.666;16.602;2022-11-09T17:15:03;6.97;;;5.65;;
65230;SDS011;51813;40.666;16.602;2022-11-09T17:17:30;8.52;;;5.72;;
65230;SDS011;51813;40.666;16.602;2022-11-09T17:19:56;8.10;;;5.40;;
65230;SDS011;51813;40.666;16.602;2022-11-09T17:22:21;6.85;;;5.47;;
65230;SDS011;51813;40.666;16.602;2022-11-09T17:24:47;6.90;;;5.18;;